createdAt,value
2023-01-15T00:01:38.881Z,101527.74
2023-01-15T00:04:09.899Z,101530.27
2023-01-15T00:06:41.800Z,101532.34
2023-01-15T00:09:13.546Z,101527.75
2023-01-15T00:11:44.317Z,101528.18
2023-01-15T00:14:14.956Z,101531.53
2023-01-15T00:16:45.658Z,101529.63
2023-01-15T00:19:16.316Z,101532.20
2023-01-15T00:21:46.987Z,101529.80
2023-01-15T00:24:35.197Z,101533.98
2023-01-15T00:27:23.528Z,101540.13
2023-01-15T00:29:54.165Z,101535.90
2023-01-15T00:32:27.388Z,101531.97
2023-01-15T00:34:59.504Z,101533.46
2023-01-15T00:37:30.123Z,101528.33
2023-01-15T00:40:00.707Z,101530.48
2023-01-15T00:42:31.500Z,101530.58
2023-01-15T00:45:10.067Z,101526.54
2023-01-15T00:47:41.841Z,101527.80
2023-01-15T00:50:14.090Z,101522.41
2023-01-15T00:52:44.771Z,101518.29
2023-01-15T00:55:15.494Z,101508.27
2023-01-15T00:57:46.158Z,101505.89
2023-01-15T01:00:17.403Z,101503.94
2023-01-15T01:02:48.119Z,101498.02
2023-01-15T01:05:19.006Z,101494.00
2023-01-15T01:07:49.616Z,101494.77
2023-01-15T01:10:20.330Z,101494.85
2023-01-15T01:12:52.420Z,101492.80
2023-01-15T01:15:23.327Z,101493.20
2023-01-15T01:17:54.051Z,101493.46
2023-01-15T01:20:24.705Z,101490.51
2023-01-15T01:22:55.675Z,101485.07
2023-01-15T01:25:26.593Z,101482.42
2023-01-15T01:27:57.454Z,101477.62
2023-01-15T01:30:28.181Z,101477.36
2023-01-15T01:32:59.049Z,101481.43
2023-01-15T01:35:29.696Z,101488.56
2023-01-15T01:38:00.482Z,101490.70
2023-01-15T01:40:31.245Z,101486.23
2023-01-15T01:43:01.895Z,101485.27
2023-01-15T01:45:33.247Z,101479.96
2023-01-15T01:48:04.664Z,101479.05
2023-01-15T01:50:35.448Z,101484.13
2023-01-15T01:53:07.714Z,101484.96
2023-01-15T01:55:38.455Z,101478.84
2023-01-15T01:58:10.029Z,101477.77
2023-01-15T02:00:41.513Z,101469.28
2023-01-15T02:03:12.177Z,101467.69
2023-01-15T02:05:44.233Z,101465.03
2023-01-15T02:08:14.884Z,101471.80
2023-01-15T02:10:45.545Z,101471.74
2023-01-15T02:13:18.099Z,101474.25
2023-01-15T02:15:49.554Z,101480.71
2023-01-15T02:18:20.863Z,101481.80
2023-01-15T02:20:51.929Z,101482.66
2023-01-15T02:23:38.945Z,101479.62
2023-01-15T02:26:26.922Z,101471.19
2023-01-15T02:28:58.144Z,101465.80
2023-01-15T02:31:30.159Z,101466.83
2023-01-15T02:34:02.329Z,101465.86
2023-01-15T02:36:34.608Z,101467.88
2023-01-15T02:39:06.909Z,101470.84
2023-01-15T02:41:38.464Z,101471.00
2023-01-15T02:44:09.193Z,101469.13
2023-01-15T02:46:39.795Z,101465.08
2023-01-15T02:49:10.741Z,101462.55
2023-01-15T02:51:42.802Z,101463.11
2023-01-15T02:54:14.614Z,101461.17
2023-01-15T02:56:45.833Z,101457.30
2023-01-15T02:59:18.840Z,101459.88
2023-01-15T03:01:51.596Z,101453.94
2023-01-15T03:04:24.248Z,101457.23
2023-01-15T03:06:56.533Z,101459.39
2023-01-15T03:09:27.149Z,101463.70
2023-01-15T03:12:06.093Z,101464.40
2023-01-15T03:14:38.010Z,101466.02
2023-01-15T03:17:10.863Z,101464.90
2023-01-15T03:19:42.769Z,101466.55
2023-01-15T03:22:14.500Z,101466.69
2023-01-15T03:24:45.522Z,101468.27
2023-01-15T03:27:16.347Z,101461.03
2023-01-15T03:29:47.520Z,101463.68
2023-01-15T03:32:18.353Z,101464.76
2023-01-15T03:34:50.451Z,101466.92
2023-01-15T03:37:21.396Z,101461.23
2023-01-15T03:39:52.173Z,101458.93
2023-01-15T03:42:24.894Z,101461.62
2023-01-15T03:44:57.101Z,101463.16
2023-01-15T03:47:31.398Z,101466.42
2023-01-15T03:50:03.889Z,101463.67
2023-01-15T03:52:34.984Z,101461.40
2023-01-15T03:55:08.618Z,101462.89
2023-01-15T03:57:40.372Z,101463.52
2023-01-15T04:00:12.360Z,101461.69
2023-01-15T04:02:43.126Z,101459.55
2023-01-15T04:05:13.832Z,101458.55
2023-01-15T04:07:44.571Z,101452.43
2023-01-15T04:10:15.345Z,101457.27
2023-01-15T04:12:46.027Z,101462.70
2023-01-15T04:15:17.018Z,101460.09
2023-01-15T04:17:47.610Z,101456.91
2023-01-15T04:20:18.376Z,101457.78
2023-01-15T04:22:48.979Z,101454.71
2023-01-15T04:25:19.847Z,101455.23
2023-01-15T04:27:50.636Z,101450.27
2023-01-15T04:30:21.395Z,101451.62
2023-01-15T04:32:52.337Z,101455.37
2023-01-15T04:35:23.091Z,101451.13
2023-01-15T04:37:56.956Z,101452.15
2023-01-15T04:40:45.172Z,101450.80
2023-01-15T04:43:33.942Z,101451.07
2023-01-15T04:46:04.685Z,101450.52
2023-01-15T04:48:35.345Z,101457.40
2023-01-15T04:51:06.715Z,101454.42
2023-01-15T04:53:37.282Z,101454.97
2023-01-15T04:56:08.316Z,101463.93
2023-01-15T04:58:39.039Z,101460.27
2023-01-15T05:01:13.268Z,101462.73
2023-01-15T05:03:44.169Z,101461.19
2023-01-15T05:06:15.462Z,101462.89
2023-01-15T05:08:46.113Z,101462.86
2023-01-15T05:11:16.761Z,101460.66
2023-01-15T05:13:47.604Z,101460.27
2023-01-15T05:16:19.417Z,101458.19
2023-01-15T05:18:50.183Z,101458.88
2023-01-15T05:21:21.932Z,101456.28
2023-01-15T05:23:53.153Z,101452.03
2023-01-15T05:26:24.299Z,101449.72
2023-01-15T05:28:56.230Z,101448.91
2023-01-15T05:31:27.092Z,101450.36
2023-01-15T05:33:57.994Z,101450.12
2023-01-15T05:36:29.698Z,101451.11
2023-01-15T05:39:02.430Z,101455.27
2023-01-15T05:41:51.660Z,101452.02
2023-01-15T05:44:23.982Z,101452.66
2023-01-15T05:46:55.792Z,101455.67
2023-01-15T05:49:27.629Z,101455.15
2023-01-15T05:51:58.655Z,101455.72
2023-01-15T05:54:30.083Z,101455.73
2023-01-15T05:57:01.603Z,101456.42
2023-01-15T05:59:32.757Z,101458.85
2023-01-15T06:02:03.582Z,101456.61
2023-01-15T06:04:34.280Z,101451.15
2023-01-15T06:07:04.983Z,101451.81
2023-01-15T06:09:35.768Z,101458.68
2023-01-15T06:12:06.893Z,101455.09
2023-01-15T06:14:37.786Z,101458.92
2023-01-15T06:17:08.562Z,101458.27
2023-01-15T06:19:39.283Z,101462.46
2023-01-15T06:22:11.122Z,101462.59
2023-01-15T06:24:42.017Z,101462.81
2023-01-15T06:27:12.717Z,101463.01
2023-01-15T06:29:43.549Z,101465.65
2023-01-15T06:32:15.045Z,101468.17
2023-01-15T06:34:45.826Z,101466.09
2023-01-15T06:37:16.666Z,101465.91
2023-01-15T06:39:47.348Z,101465.49
2023-01-15T06:42:35.588Z,101466.65
2023-01-15T06:45:24.399Z,101470.27
2023-01-15T06:47:55.100Z,101469.20
2023-01-15T06:50:25.858Z,101468.60
2023-01-15T06:52:56.681Z,101472.38
2023-01-15T06:55:27.555Z,101474.96
2023-01-15T06:57:58.365Z,101470.45
2023-01-15T07:00:29.111Z,101473.15
2023-01-15T07:03:02.196Z,101474.23
2023-01-15T07:05:33.063Z,101476.80
2023-01-15T07:08:03.967Z,101474.83
2023-01-15T07:10:36.370Z,101475.91
2023-01-15T07:13:07.618Z,101473.48
2023-01-15T07:15:38.700Z,101472.61
2023-01-15T07:18:09.409Z,101471.89
2023-01-15T07:20:40.142Z,101470.33
2023-01-15T07:23:11.385Z,101473.65
2023-01-15T07:25:42.115Z,101472.73
2023-01-15T07:28:12.911Z,101473.89
2023-01-15T07:30:43.605Z,101473.66
2023-01-15T07:33:14.373Z,101470.89
2023-01-15T07:35:45.832Z,101470.14
2023-01-15T07:38:16.476Z,101470.82
2023-01-15T07:41:07.543Z,101470.20
2023-01-15T07:43:56.076Z,101465.75
2023-01-15T07:46:44.384Z,101472.63
2023-01-15T07:49:32.601Z,101478.59
2023-01-15T07:52:03.365Z,101478.42
2023-01-15T07:54:34.253Z,101475.57
2023-01-15T07:57:05.919Z,101478.45
2023-01-15T07:59:36.607Z,101478.05
2023-01-15T08:02:07.442Z,101478.87
2023-01-15T08:04:38.414Z,101481.13
2023-01-15T08:07:09.332Z,101477.73
2023-01-15T08:09:40.174Z,101481.39
2023-01-15T08:12:29.432Z,101484.08
2023-01-15T08:15:16.722Z,101478.32
2023-01-15T08:17:48.076Z,101479.25
2023-01-15T08:20:19.665Z,101479.13
2023-01-15T08:22:50.347Z,101473.35
2023-01-15T08:25:21.896Z,101469.39
2023-01-15T08:27:52.801Z,101474.77
2023-01-15T08:30:24.552Z,101480.05
2023-01-15T08:33:00.101Z,101478.48
2023-01-15T08:35:30.887Z,101479.02
2023-01-15T08:38:01.572Z,101478.90
2023-01-15T08:40:32.245Z,101479.62
2023-01-15T08:43:02.943Z,101481.15
2023-01-15T08:45:33.688Z,101476.48
2023-01-15T08:48:04.463Z,101474.80
2023-01-15T08:50:35.258Z,101473.10
2023-01-15T08:53:06.009Z,101473.66
2023-01-15T08:55:38.484Z,101474.05
2023-01-15T08:58:09.421Z,101470.77
2023-01-15T09:00:40.494Z,101466.04
2023-01-15T09:03:11.508Z,101461.66
2023-01-15T09:05:42.367Z,101455.85
2023-01-15T09:08:13.159Z,101452.98
2023-01-15T09:10:43.922Z,101450.77
2023-01-15T09:13:14.747Z,101445.89
2023-01-15T09:15:45.690Z,101442.23
2023-01-15T09:18:19.472Z,101440.50
2023-01-15T09:20:50.370Z,101439.09
2023-01-15T09:23:21.276Z,101435.00
2023-01-15T09:25:55.534Z,101429.38
2023-01-15T09:28:26.316Z,101429.09
2023-01-15T09:30:57.117Z,101429.97
2023-01-15T09:33:28.701Z,101425.91
2023-01-15T09:35:59.447Z,101419.63
2023-01-15T09:38:30.155Z,101415.48
2023-01-15T09:41:03.029Z,101410.64
2023-01-15T09:43:45.033Z,101409.63
2023-01-15T09:46:21.795Z,101404.67
2023-01-15T09:48:54.081Z,101396.30
2023-01-15T09:51:27.381Z,101392.17
2023-01-15T09:54:00.631Z,101393.08
2023-01-15T09:56:33.174Z,101393.98
2023-01-15T09:59:05.393Z,101391.16
2023-01-15T10:01:36.179Z,101384.33
2023-01-15T10:04:07.787Z,101381.16
2023-01-15T10:06:40.970Z,101376.05
2023-01-15T10:09:13.473Z,101370.17
2023-01-15T10:12:03.035Z,101367.21
2023-01-15T10:14:39.651Z,101362.08
2023-01-15T10:17:28.751Z,101362.27
2023-01-15T10:20:00.770Z,101357.40
2023-01-15T10:22:36.238Z,101351.66
2023-01-15T10:25:09.229Z,101349.70
2023-01-15T10:27:40.337Z,101350.02
2023-01-15T10:30:13.171Z,101343.98
2023-01-15T10:33:01.107Z,101337.84
2023-01-15T10:35:41.720Z,101337.42
2023-01-15T10:38:15.650Z,101335.72
2023-01-15T10:40:51.272Z,101330.06
2023-01-15T10:43:24.611Z,101321.73
2023-01-15T10:45:57.914Z,101315.48
2023-01-15T10:48:29.954Z,101313.86
2023-01-15T10:51:01.870Z,101311.14
2023-01-15T10:53:34.078Z,101312.63
2023-01-15T10:56:07.926Z,101305.81
2023-01-15T10:58:40.849Z,101303.23
2023-01-15T11:01:13.307Z,101299.84
2023-01-15T11:03:44.842Z,101295.46
2023-01-15T11:06:17.272Z,101292.02
2023-01-15T11:09:09.264Z,101286.63
2023-01-15T11:12:00.216Z,101279.52
2023-01-15T11:14:52.611Z,101274.36
2023-01-15T11:17:40.611Z,101274.17
2023-01-15T11:20:17.708Z,101267.80
2023-01-15T11:22:48.328Z,101266.53
2023-01-15T11:25:27.728Z,101261.89
2023-01-15T11:27:58.589Z,101256.11
2023-01-15T11:30:30.848Z,101256.40
2023-01-15T11:33:04.246Z,101254.52
2023-01-15T11:35:35.759Z,101248.27
2023-01-15T11:38:07.596Z,101249.21
2023-01-15T11:40:38.857Z,101246.89
2023-01-15T11:43:38.425Z,101246.15
2023-01-15T11:46:39.199Z,101239.76
2023-01-15T11:49:29.261Z,101239.23
2023-01-15T11:52:00.121Z,101239.02
2023-01-15T11:54:30.780Z,101235.36
2023-01-15T11:57:01.535Z,101231.91
2023-01-15T11:59:32.298Z,101224.41
2023-01-15T12:02:04.603Z,101225.54
2023-01-15T12:04:36.432Z,101223.42
2023-01-15T12:07:07.594Z,101218.55
2023-01-15T12:09:42.510Z,101222.64
2023-01-15T12:12:18.524Z,101215.48
2023-01-15T12:15:06.900Z,101215.93
2023-01-15T12:17:48.223Z,101212.36
2023-01-15T12:20:21.113Z,101209.27
2023-01-15T12:23:02.012Z,101205.04
2023-01-15T12:25:35.152Z,101206.39
2023-01-15T12:28:08.596Z,101202.80
2023-01-15T12:30:41.175Z,101198.55
2023-01-15T12:33:28.325Z,101199.44
2023-01-15T12:36:00.118Z,101197.48
2023-01-15T12:38:44.376Z,101197.23
2023-01-15T12:41:15.628Z,101193.51
2023-01-15T12:44:05.049Z,101195.70
2023-01-15T12:46:35.802Z,101195.33
2023-01-15T12:49:08.349Z,101191.91
2023-01-15T12:51:40.868Z,101186.61
2023-01-15T12:54:12.957Z,101189.45
2023-01-15T12:56:46.762Z,101189.90
2023-01-15T12:59:18.636Z,101186.30
2023-01-15T13:01:50.715Z,101188.85
2023-01-15T13:04:23.312Z,101184.48
2023-01-15T13:06:55.360Z,101179.38
2023-01-15T13:09:33.363Z,101179.22
2023-01-15T13:12:04.071Z,101181.52
2023-01-15T13:14:34.748Z,101180.89
2023-01-15T13:17:06.622Z,101181.42
2023-01-15T13:19:40.005Z,101184.63
2023-01-15T13:22:12.248Z,101183.41
2023-01-15T13:24:53.455Z,101183.44
2023-01-15T13:27:26.862Z,101183.01
2023-01-15T13:30:02.101Z,101182.00
2023-01-15T13:32:33.444Z,101177.95
2023-01-15T13:35:06.696Z,101176.80
2023-01-15T13:37:38.540Z,101179.44
2023-01-15T13:40:11.697Z,101177.29
2023-01-15T13:42:44.584Z,101178.93
2023-01-15T13:45:33.127Z,101172.69
2023-01-15T13:48:05.800Z,101170.79
2023-01-15T13:50:37.380Z,101172.60
2023-01-15T13:53:09.923Z,101173.17
2023-01-15T13:55:41.288Z,101173.11
2023-01-15T13:58:19.551Z,101170.17
2023-01-15T14:00:50.288Z,101170.71
2023-01-15T14:03:27.839Z,101168.50
2023-01-15T14:05:58.832Z,101165.36
2023-01-15T14:08:30.791Z,101159.45
2023-01-15T14:11:03.132Z,101156.08
2023-01-15T14:13:42.797Z,101161.08
2023-01-15T14:16:16.334Z,101157.48
2023-01-15T14:19:08.020Z,101155.02
2023-01-15T14:21:42.431Z,101153.04
2023-01-15T14:24:21.275Z,101148.30
2023-01-15T14:26:54.962Z,101149.34
2023-01-15T14:29:42.249Z,101142.11
2023-01-15T14:32:13.234Z,101141.04
2023-01-15T14:34:43.967Z,101134.62
2023-01-15T14:37:24.862Z,101137.00
2023-01-15T14:39:58.787Z,101134.33
2023-01-15T14:42:47.592Z,101133.71
2023-01-15T14:45:21.124Z,101129.18
2023-01-15T14:47:52.285Z,101127.56
2023-01-15T14:50:31.468Z,101125.11
2023-01-15T14:53:03.869Z,101131.05
2023-01-15T14:55:35.347Z,101131.21
2023-01-15T14:58:08.669Z,101132.27
2023-01-15T15:00:39.899Z,101129.73
2023-01-15T15:03:16.672Z,101125.40
2023-01-15T15:05:47.558Z,101126.77
2023-01-15T15:08:18.414Z,101123.51
2023-01-15T15:10:51.332Z,101122.30
2023-01-15T15:13:27.936Z,101121.85
2023-01-15T15:15:59.862Z,101121.80
2023-01-15T15:18:32.031Z,101115.39
2023-01-15T15:21:05.713Z,101115.67
2023-01-15T15:23:39.189Z,101115.16
2023-01-15T15:26:19.284Z,101116.60
2023-01-15T15:28:58.476Z,101115.91
2023-01-15T15:31:30.061Z,101117.46
2023-01-15T15:34:00.778Z,101119.34
2023-01-15T15:36:32.931Z,101121.13
2023-01-15T15:39:05.354Z,101125.31
2023-01-15T15:41:54.604Z,101123.10
2023-01-15T15:44:44.134Z,101117.66
2023-01-15T15:47:39.989Z,101113.62
2023-01-15T15:50:22.055Z,101114.04
2023-01-15T15:52:53.076Z,101114.21
2023-01-15T15:55:23.862Z,101115.73
2023-01-15T15:57:55.456Z,101117.14
2023-01-15T16:00:27.334Z,101116.67
2023-01-15T16:02:58.127Z,101111.77
2023-01-15T16:05:31.949Z,101113.48
2023-01-15T16:08:10.683Z,101119.68
2023-01-15T16:10:41.418Z,101116.96
2023-01-15T16:13:14.945Z,101116.98
2023-01-15T16:15:48.652Z,101117.73
2023-01-15T16:18:20.943Z,101112.36
2023-01-15T16:20:52.693Z,101113.43
2023-01-15T16:23:24.583Z,101116.98
2023-01-15T16:25:59.874Z,101118.11
2023-01-15T16:28:31.444Z,101119.21
2023-01-15T16:31:03.392Z,101115.12
2023-01-15T16:33:34.121Z,101117.85
2023-01-15T16:36:06.632Z,101119.27
2023-01-15T16:38:38.068Z,101117.16
2023-01-15T16:41:08.945Z,101114.05
2023-01-15T16:43:50.740Z,101109.16
2023-01-15T16:46:22.529Z,101109.61
2023-01-15T16:48:53.292Z,101105.66
2023-01-15T16:51:31.802Z,101097.92
2023-01-15T16:54:04.198Z,101100.51
2023-01-15T16:56:54.898Z,101101.11
2023-01-15T16:59:40.816Z,101102.58
2023-01-15T17:02:14.209Z,101096.52
2023-01-15T17:04:45.261Z,101095.29
2023-01-15T17:07:18.748Z,101092.42
2023-01-15T17:09:50.782Z,101094.35
2023-01-15T17:12:24.312Z,101092.32
2023-01-15T17:14:54.995Z,101087.16
2023-01-15T17:17:29.053Z,101084.84
2023-01-15T17:19:59.826Z,101082.51
2023-01-15T17:22:31.618Z,101081.73
2023-01-15T17:25:02.479Z,101079.36
2023-01-15T17:27:33.378Z,101078.63
2023-01-15T17:30:04.535Z,101080.70
2023-01-15T17:32:36.325Z,101082.77
2023-01-15T17:35:08.992Z,101079.51
2023-01-15T17:37:39.839Z,101084.09
2023-01-15T17:40:13.503Z,101078.30
2023-01-15T17:42:44.305Z,101074.45
2023-01-15T17:45:15.050Z,101076.99
2023-01-15T17:47:45.701Z,101076.08
2023-01-15T17:50:17.633Z,101077.38
2023-01-15T17:52:48.609Z,101077.73
2023-01-15T17:55:38.432Z,101080.55
2023-01-15T17:58:27.680Z,101078.05
2023-01-15T18:01:15.890Z,101078.16
2023-01-15T18:04:05.448Z,101080.45
2023-01-15T18:06:36.220Z,101077.27
2023-01-15T18:09:07.387Z,101076.71
2023-01-15T18:11:39.634Z,101080.16
2023-01-15T18:14:10.435Z,101078.80
2023-01-15T18:16:41.167Z,101076.48
2023-01-15T18:19:12.107Z,101074.69
2023-01-15T18:21:43.227Z,101070.42
2023-01-15T18:28:17.744Z,101062.67
2023-01-15T18:30:49.614Z,101051.45
2023-01-15T18:33:20.314Z,101047.77
2023-01-15T18:35:51.130Z,101049.83
2023-01-15T18:38:21.959Z,101038.79
2023-01-15T18:40:52.930Z,101034.53
2023-01-15T18:44:00.366Z,101030.58
2023-01-15T18:46:48.891Z,101032.39
2023-01-15T18:49:19.743Z,101031.60
2023-01-15T18:52:13.041Z,101032.36
2023-01-15T18:54:45.697Z,101029.88
2023-01-15T18:57:17.013Z,101031.93
2023-01-15T18:59:48.541Z,101032.30
2023-01-15T19:02:20.025Z,101035.03
2023-01-15T19:04:50.923Z,101033.59
2023-01-15T19:07:22.216Z,101031.56
2023-01-15T19:09:54.481Z,101027.38
2023-01-15T19:12:25.258Z,101026.81
2023-01-15T19:15:13.788Z,101024.06
2023-01-15T19:18:02.181Z,101026.05
2023-01-15T19:20:32.580Z,101025.08
2023-01-15T19:23:06.005Z,101025.80
2023-01-15T19:25:39.961Z,101022.46
2023-01-15T19:28:11.614Z,101024.23
2023-01-15T19:30:42.495Z,101026.58
2023-01-15T19:33:13.347Z,101025.38
2023-01-15T19:35:44.700Z,101024.71
2023-01-15T19:38:15.654Z,101019.48
2023-01-15T19:40:46.284Z,101012.95
2023-01-15T19:43:34.534Z,101013.75
2023-01-15T19:46:31.133Z,101015.39
2023-01-15T19:49:20.812Z,101009.30
2023-01-15T19:52:09.121Z,101007.05
2023-01-15T19:54:59.898Z,101004.82
2023-01-15T19:57:30.679Z,101000.63
2023-01-15T20:00:01.946Z,100997.78
2023-01-15T20:02:33.697Z,100996.08
2023-01-15T20:05:04.843Z,100992.84
2023-01-15T20:07:35.490Z,100986.99
2023-01-15T20:10:07.349Z,100985.83
2023-01-15T20:12:55.722Z,100988.39
2023-01-15T20:15:26.548Z,100988.98
2023-01-15T20:17:57.480Z,100987.61
2023-01-15T20:20:29.194Z,100992.67
2023-01-15T20:22:59.988Z,100991.64
2023-01-15T20:25:30.738Z,100987.30
2023-01-15T20:28:01.476Z,100987.65
2023-01-15T20:30:32.319Z,100981.21
2023-01-15T20:33:03.574Z,100979.23
2023-01-15T20:35:34.364Z,100975.98
2023-01-15T20:38:05.094Z,100970.81
2023-01-15T20:40:35.960Z,100970.55
2023-01-15T20:43:24.416Z,100960.83
2023-01-15T20:45:56.484Z,100962.15
2023-01-15T20:48:44.707Z,100957.81
2023-01-15T20:51:15.701Z,100958.30
2023-01-15T20:53:46.680Z,100960.97
2023-01-15T20:56:18.909Z,100956.73
2023-01-15T20:58:51.655Z,100955.02
2023-01-15T21:01:24.755Z,100958.41
2023-01-15T21:03:55.476Z,100955.98
2023-01-15T21:06:26.352Z,100952.98
2023-01-15T21:08:57.134Z,100949.21
2023-01-15T21:11:27.793Z,100954.09
2023-01-15T21:13:58.508Z,100951.00
2023-01-15T21:16:29.171Z,100950.79
2023-01-15T21:19:01.437Z,100952.79
2023-01-15T21:21:32.353Z,100950.19
2023-01-15T21:24:03.578Z,100947.46
2023-01-15T21:26:35.533Z,100947.58
2023-01-15T21:29:06.385Z,100944.30
2023-01-15T21:31:37.223Z,100941.59
2023-01-15T21:34:07.898Z,100944.98
2023-01-15T21:36:38.687Z,100945.45
2023-01-15T21:39:10.670Z,100943.12
2023-01-15T21:41:59.139Z,100944.48
2023-01-15T21:44:34.653Z,100948.86
2023-01-15T21:47:06.040Z,100948.81
2023-01-15T21:49:36.902Z,100945.05
2023-01-15T21:52:08.776Z,100943.41
2023-01-15T21:54:39.548Z,100941.70
2023-01-15T21:57:10.312Z,100938.80
2023-01-15T21:59:41.435Z,100940.16
2023-01-15T22:02:16.850Z,100946.67
2023-01-15T22:04:48.737Z,100946.49
2023-01-15T22:07:19.802Z,100939.35
2023-01-15T22:09:50.516Z,100941.16
2023-01-15T22:12:21.389Z,100943.08
2023-01-15T22:14:53.869Z,100943.50
2023-01-15T22:17:24.640Z,100949.52
2023-01-15T22:19:55.411Z,100944.91
2023-01-15T22:22:31.220Z,100939.86
2023-01-15T22:25:02.072Z,100936.48
2023-01-15T22:27:34.742Z,100928.58
2023-01-15T22:30:06.157Z,100922.95
2023-01-15T22:32:36.819Z,100919.16
2023-01-15T22:35:08.634Z,100911.11
2023-01-15T22:37:39.347Z,100914.90
2023-01-15T22:40:11.050Z,100912.03
2023-01-15T22:42:41.789Z,100906.66
2023-01-15T22:45:12.832Z,100905.55
2023-01-15T22:47:43.520Z,100903.70
2023-01-15T22:50:14.260Z,100905.19
2023-01-15T22:52:45.009Z,100901.88
2023-01-15T22:55:15.799Z,100897.25
2023-01-15T22:57:47.881Z,100894.63
2023-01-15T23:00:18.876Z,100886.64
2023-01-15T23:02:55.781Z,100876.58
2023-01-15T23:05:26.559Z,100870.98
2023-01-15T23:07:57.259Z,100869.13
2023-01-15T23:10:27.943Z,100867.56
2023-01-15T23:12:58.639Z,100858.95
2023-01-15T23:15:29.421Z,100856.60
2023-01-15T23:18:00.135Z,100856.50
2023-01-15T23:20:30.784Z,100852.33
2023-01-15T23:23:01.506Z,100850.04
2023-01-15T23:25:32.214Z,100848.66
2023-01-15T23:28:02.850Z,100846.41
2023-01-15T23:30:33.514Z,100837.31
2023-01-15T23:33:04.124Z,100833.85
2023-01-15T23:35:35.026Z,100829.20
2023-01-15T23:38:05.678Z,100821.09
2023-01-15T23:40:36.462Z,100826.84
2023-01-15T23:43:24.960Z,100824.98
2023-01-15T23:46:13.254Z,100818.65
2023-01-15T23:48:43.903Z,100824.84
2023-01-15T23:51:14.639Z,100826.70
2023-01-15T23:53:45.367Z,100826.27
2023-01-15T23:56:16.081Z,100825.73
2023-01-15T23:58:47.492Z,100822.11
